Choix d'un mois et d'une année:    

Climatologie mensuelle : Juin 2018

Jour Température Vent Pluie Humidité Pression Radiations solaires
min moy max moyen rafale Secteur Max (W/m²) Durée
01/06/2018 15.6 20.1 27.1 6.1 21.6 SSO 4.7 83.2 1019.7 1091.5 0h14
02/06/2018 0 20.4 27.2 2.5 18.4 SSO 0 73.9 1018.9 1124.8 2h23
03/06/2018 0 21.7 30.1 2.6 16.8 NO 0 65.6 1017.2 967.7 12h20
04/06/2018 0 23.4 31.6 4.6 22.4 ONO 0 67.6 1011.6 1059.6 3h50
05/06/2018 17.7 24.1 30.5 5.1 23.2 ONO 0 65.9 1011.3 1060.3 9h20
06/06/2018 16.9 25 34.7 3.9 30.4 ONO 0 61.3 1012.8 904.7 6h00
07/06/2018 0 21.7 26.7 2.5 13.6 ESE 0.5 80.7 1013.2 1027 0h20
08/06/2018 0 21.5 30.5 2.3 20.8 NE 2.1 80.6 1011.6 1098.1 1h45
09/06/2018 0 21.9 31.7 13.1 123.2 ONO 9.3 81.6 1013.2 1030.4 4h40
10/06/2018 15 23 33.5 3.3 40.8 N 1.6 75.4 1012.6 1068.6 4h00
11/06/2018 16.5 19.8 26.7 2.5 40.8 O 5.7 91.8 1010.8 957.9 0h30
12/06/2018 15.3 16.5 17.4 4.6 24.8 ONO 6.8 96.6 1010.9 366.6 0h00
13/06/2018 14.6 20 22.3 4.6 24 ONO 0 53 1017.6 870.7 0h55
14/06/2018 12.6 22 30.4 2.4 20.8 SSO 1 53 1017.9 1190.4 4h35
15/06/2018 18.7 25 33.6 2.6 13.6 E 0 53.9 1017.9 1136.9 2h35
16/06/2018 0 27.9 35.3 5 29.6 SSO 0 44 1016.3 1093.1 5h40
17/06/2018 0 22.4 28.1 5.1 28.8 SSO 0 52.9 1019.6 883.1 1h00
18/06/2018 15.5 25.5 30.4 5.5 22.4 S 0 49.1 1023.7 1071 1h55
19/06/2018 0 24.5 30.9 2.8 21.6 SO 0 55.3 1025 868.9 2h25
20/06/2018 0 28.8 40.3 2 14.4 SO 0 46.9 1021.4 945.2 14h25
21/06/2018 17 23.8 30.7 8.3 36 OSO 0 45.8 1020.5 1079.8 9h45
22/06/2018 15.3 21 24.2 7.6 28 OSO 0 37.7 1027.4 1111.1 4h05
23/06/2018 0 21.7 26.2 5.3 28 ONO 0 41.1 1017.2 929.2 7h45
24/06/2018 13.5 22.4 29.5 3 21.6 OSO 0 45.2 1023 924.2 3h25
Moyennes 8.5 22.7 29.6 4.5 - - - 62.6 1017.1 994.2 -
Total - - - - - - 31.7 - - - 103h52


Nombre de jours
Pluie Gel Chaleur
avec pluie : 8 avec gelée : 11 avec chaleur (>=30): 14
avec plus de 1mm : 7 avec forte gelée (<=-5): 0 avec canicule (>=35): 2
avec plus de 5mm : 3 sans dégel : 0
avec plus de 10mm : 0

Répartition des vents
Direction Fréquence
N 8.1
NNE 0
NE 7
ENE 0
E 6.4
ESE 5.5
SE 3
SSE 2.9
S 4.8
SSO 9.2
SO 9.3
OSO 10.6
SSO 10
ONO 10.9
NO 7.7
NNO 4.6

Radiations solaires mensuelles : Juin 2018

Jour Ciel limpide Ciel laiteux Ciel nuageux Ciel couvert Durée
Durée % Durée % Durée % Durée % du jour
01/06/2018 0h14 5.8 0h07 2.9 0h24 10 0h42 17.5 4h00
02/06/2018 2h23 14.9 0h24 2.5 2h16 14.2 3h15 20.3 15h59
03/06/2018 12h20 77 2h00 12.5 0h25 2.6 0h05 0.5 16h01
04/06/2018 3h50 23.9 2h00 12.5 4h20 27 3h30 21.8 16h02
05/06/2018 9h20 58.1 1h35 9.9 1h45 10.9 1h15 7.8 16h04
06/06/2018 6h00 37.3 4h30 28 3h25 21.2 1h00 6.2 16h05
07/06/2018 0h20 2.1 0h40 4.1 3h05 19.2 9h00 55.9 16h06
08/06/2018 1h45 10.9 0h35 3.6 4h00 24.8 8h30 52.7 16h07
09/06/2018 4h40 28.9 1h25 8.8 2h40 16.5 3h45 23.2 16h08
10/06/2018 4h00 24.8 1h15 7.7 2h20 14.4 4h55 30.4 16h09
11/06/2018 0h30 3.1 0h30 3.1 5h35 34.5 8h20 51.5 16h10
12/06/2018 0h00 0 0h00 0 0h20 2.1 14h30 89.6 16h11
13/06/2018 0h55 5.7 0h35 3.6 4h05 25.2 7h25 45.8 16h12
14/06/2018 4h35 28.3 0h50 5.1 5h05 31.3 4h40 28.8 16h13
15/06/2018 2h35 15.9 1h20 8.2 3h40 22.6 4h20 26.7 16h13
16/06/2018 5h40 34.9 2h50 17.5 3h40 22.6 2h45 16.9 16h14
17/06/2018 1h00 6.2 1h05 6.7 4h45 29.3 5h25 33.4 16h14
18/06/2018 1h55 11.8 0h50 5.1 4h20 26.7 5h10 31.8 16h14
19/06/2018 2h25 14.9 0h30 3.1 4h35 28.2 4h00 24.6 16h15
20/06/2018 14h25 88.7 0h05 0.5 0h25 2.6 0h05 0.5 16h15
21/06/2018 9h45 60 1h15 7.7 3h20 20.5 0h55 5.6 16h15
22/06/2018 4h05 25.1 0h50 5.1 3h00 18.5 5h35 34.4 16h15
23/06/2018 7h45 47.7 0h40 4.1 3h35 22.1 1h25 8.7 16h15
24/06/2018 3h25 21 4h20 26.7 5h40 34.9 1h55 11.8 16h14
Total 103h52 27 30h11 8.2 76h45 21 102h27 28.1 -